Al Khuwair — C6VM6 — position and weather

sailwx.info

Track history (hours):
 
Tides and Currents Weather Stations Pressure Air Temp Water Temp Dewpoint Dewpoint Depression Visibility Wind Speed Wind Dir Waves Ship Positions

Al Khuwair

Last reported at 2017-Nov-18 21:01 UTC. Time now 2017-Nov-22 22:19 UTC.
Position N 01°14' E 103°59'.

Length 315 m; draft 12.2 m.

Type: Ship (hazmat cat A). MMSI: 311000140.

Date/timePositionNaut miles runAvg speedWind from/ knotsBaromVisibWave heightAir tempDewpointWater temp
2017-Nov-18 21:01N 01°14' E 103°59'0 9.3
2017-Nov-18 20:59N 01°14' E 103°59'510.5
2017-Nov-18 20:30N 01°12' E 103°54'510.1
2017-Nov-18 20:01N 01°10' E 103°50'510.0
2017-Nov-18 19:31N 01°08' E 103°46'510.3
2017-Nov-18 18:59N 01°04' E 103°42'5 9.5
2017-Nov-18 18:30N 01°03' E 103°37'611.4
2017-Nov-18 17:59N 01°07' E 103°32'714.1
2017-Nov-18 17:30N 01°10' E 103°26'816.1
2017-Nov-18 16:59N 01°15' E 103°20'  
Track history (hours):
 
Tides and Currents Weather Stations Pressure Air Temp Water Temp Dewpoint Dewpoint Depression Visibility Wind Speed Wind Dir Waves Ship Positions

Al Khuwair

Last reported at 2017-Nov-18 21:01 UTC. Time now 2017-Nov-22 22:19 UTC.
Position N 01°14' E 103°59'.

Length 315 m; draft 12.2 m.

Type: Ship (hazmat cat A). MMSI: 311000140.

Date/timePositionNaut miles runAvg speedWind from/ knotsBaromVisibWave heightAir tempDewpointWater temp
2017-Nov-18 21:01N 01°14' E 103°59'0 9.3
2017-Nov-18 20:59N 01°14' E 103°59'510.5
2017-Nov-18 20:30N 01°12' E 103°54'510.1
2017-Nov-18 20:01N 01°10' E 103°50'510.0
2017-Nov-18 19:31N 01°08' E 103°46'510.3
2017-Nov-18 18:59N 01°04' E 103°42'5 9.5
2017-Nov-18 18:30N 01°03' E 103°37'611.4
2017-Nov-18 17:59N 01°07' E 103°32'714.1
2017-Nov-18 17:30N 01°10' E 103°26'816.1
2017-Nov-18 16:59N 01°15' E 103°20'  

Dump ship's entire track history